createdAt,value
2022-10-17T00:01:29.402Z,101378.14
2022-10-17T00:03:59.332Z,101381.61
2022-10-17T00:06:27.711Z,101379.01
2022-10-17T00:08:56.201Z,101385.98
2022-10-17T00:11:24.979Z,101389.44
2022-10-17T00:13:55.865Z,101400.78
2022-10-17T00:16:26.955Z,101393.80
2022-10-17T00:18:56.110Z,101392.95
2022-10-17T00:21:25.308Z,101390.33
2022-10-17T00:23:54.399Z,101389.45
2022-10-17T00:26:23.251Z,101382.50
2022-10-17T00:28:52.916Z,101380.73
2022-10-17T00:31:22.993Z,101379.86
2022-10-17T00:33:52.072Z,101385.98
2022-10-17T00:36:22.418Z,101394.69
2022-10-17T00:38:54.068Z,101399.91
2022-10-17T00:41:25.014Z,101400.78
2022-10-17T00:44:00.486Z,101406.89
2022-10-17T00:46:31.260Z,101399.91
2022-10-17T00:49:05.706Z,101399.04
2022-10-17T00:51:38.335Z,101410.35
2022-10-17T00:54:09.131Z,101398.15
2022-10-17T00:56:40.117Z,101399.87
2022-10-17T00:59:11.308Z,101404.25
2022-10-17T01:01:41.618Z,101394.66
2022-10-17T01:04:10.287Z,101397.27
2022-10-17T01:06:41.074Z,101405.11
2022-10-17T01:09:10.307Z,101406.86
2022-10-17T01:11:45.640Z,101405.12
2022-10-17T01:14:22.717Z,101412.95
2022-10-17T01:16:59.173Z,101417.30
2022-10-17T01:19:46.286Z,101413.81
2022-10-17T01:22:23.462Z,101413.83
2022-10-17T01:25:18.480Z,101400.77
2022-10-17T01:28:16.972Z,101391.19
2022-10-17T01:30:59.214Z,101396.41
2022-10-17T01:33:53.613Z,101397.30
2022-10-17T01:36:38.278Z,101392.06
2022-10-17T01:39:17.133Z,101392.95
2022-10-17T01:41:52.384Z,101391.19
2022-10-17T01:44:27.367Z,101382.49
2022-10-17T01:47:04.514Z,101394.69
2022-10-17T01:49:37.341Z,101397.30
2022-10-17T01:52:11.348Z,101404.27
2022-10-17T01:54:44.299Z,101405.14
2022-10-17T01:57:20.807Z,101403.39
2022-10-17T01:59:53.609Z,101406.02
2022-10-17T02:02:24.425Z,101405.14
2022-10-17T02:04:55.189Z,101402.52
2022-10-17T02:07:23.976Z,101399.05
2022-10-17T02:09:52.814Z,101397.30
2022-10-17T02:12:38.071Z,101400.77
2022-10-17T02:15:28.436Z,101402.52
2022-10-17T02:18:08.308Z,101392.08
2022-10-17T02:20:45.960Z,101404.25
2022-10-17T02:23:23.462Z,101419.07
2022-10-17T02:26:01.624Z,101423.41
2022-10-17T02:28:36.652Z,101417.30
2022-10-17T02:31:09.226Z,101415.55
2022-10-17T02:33:44.173Z,101421.66
2022-10-17T02:36:17.799Z,101419.91
2022-10-17T02:38:46.949Z,101431.25
2022-10-17T02:41:19.413Z,101439.94
2022-10-17T02:43:49.552Z,101441.66
2022-10-17T02:46:23.332Z,101432.93
2022-10-17T02:48:55.223Z,101436.41
2022-10-17T02:51:29.702Z,101446.86
2022-10-17T02:54:07.614Z,101444.23
2022-10-17T02:56:42.693Z,101448.58
2022-10-17T02:59:15.563Z,101452.92
2022-10-17T03:01:45.069Z,101459.01
2022-10-17T03:04:15.295Z,101464.22
2022-10-17T03:06:47.432Z,101467.67
2022-10-17T03:09:16.355Z,101478.95
2022-10-17T03:11:44.898Z,101491.09
2022-10-17T03:14:13.296Z,101491.98
2022-10-17T03:16:42.773Z,101488.51
2022-10-17T03:19:11.774Z,101485.06
2022-10-17T03:21:40.923Z,101480.72
2022-10-17T03:24:09.734Z,101481.63
2022-10-17T03:26:38.168Z,101479.01
2022-10-17T03:29:06.784Z,101472.94
2022-10-17T03:31:35.771Z,101479.94
2022-10-17T03:34:04.389Z,101486.87
2022-10-17T03:36:33.075Z,101479.92
2022-10-17T03:39:02.812Z,101477.33
2022-10-17T03:41:31.345Z,101478.19
2022-10-17T03:44:00.713Z,101478.19
2022-10-17T03:46:36.960Z,101478.20
2022-10-17T03:49:06.334Z,101474.70
2022-10-17T03:51:35.733Z,101477.33
2022-10-17T03:54:07.966Z,101470.37
2022-10-17T03:56:36.893Z,101469.50
2022-10-17T03:59:11.212Z,101478.19
2022-10-17T04:01:48.880Z,101482.54
2022-10-17T04:04:17.470Z,101485.16
2022-10-17T04:06:46.457Z,101483.41
2022-10-17T04:09:15.455Z,101478.17
2022-10-17T04:12:04.749Z,101486.87
2022-10-17T04:14:34.128Z,101487.73
2022-10-17T04:17:03.326Z,101503.38
2022-10-17T04:19:33.013Z,101509.44
2022-10-17T04:22:02.657Z,101512.00
2022-10-17T04:24:31.980Z,101511.97
2022-10-17T04:27:19.515Z,101513.70
2022-10-17T04:29:48.667Z,101504.11
2022-10-17T04:32:19.717Z,101506.75
2022-10-17T04:34:55.825Z,101501.56
2022-10-17T04:37:25.152Z,101502.45
2022-10-17T04:39:55.446Z,101505.95
2022-10-17T04:42:24.811Z,101500.72
2022-10-17T04:44:54.399Z,101501.59
2022-10-17T04:47:24.113Z,101505.08
2022-10-17T04:49:52.633Z,101499.85
2022-10-17T04:52:22.955Z,101512.04
2022-10-17T04:54:53.051Z,101518.16
2022-10-17T04:57:28.537Z,101516.38
2022-10-17T05:00:04.307Z,101522.41
2022-10-17T05:02:56.180Z,101523.25
2022-10-17T05:05:24.773Z,101524.11
2022-10-17T05:07:54.935Z,101534.55
2022-10-17T05:10:27.529Z,101537.16
2022-10-17T05:12:56.655Z,101539.77
2022-10-17T05:15:27.940Z,101545.85
2022-10-17T05:17:59.538Z,101550.21
2022-10-17T05:20:29.082Z,101551.94
2022-10-17T05:23:04.197Z,101554.53
2022-10-17T05:25:36.603Z,101540.66
2022-10-17T05:28:05.406Z,101538.95
2022-10-17T05:30:36.687Z,101546.78
2022-10-17T05:33:09.082Z,101542.42
2022-10-17T05:35:38.123Z,101551.17
2022-10-17T05:38:07.234Z,101568.61
2022-10-17T05:40:38.025Z,101575.55
2022-10-17T05:43:06.747Z,101583.41
2022-10-17T05:45:37.028Z,101600.81
2022-10-17T05:48:08.496Z,101601.70
2022-10-17T05:50:37.065Z,101598.25
2022-10-17T05:53:15.473Z,101587.86
2022-10-17T05:55:56.205Z,101588.75
2022-10-17T05:58:45.429Z,101581.80
2022-10-17T06:01:24.237Z,101587.06
2022-10-17T06:03:53.382Z,101578.38
2022-10-17T06:06:22.331Z,101585.36
2022-10-17T06:08:51.216Z,101584.54
2022-10-17T06:11:28.207Z,101590.66
2022-10-17T06:14:00.882Z,101591.55
2022-10-17T06:16:48.455Z,101608.09
2022-10-17T06:19:18.146Z,101622.06
2022-10-17T06:21:48.759Z,101614.23
2022-10-17T06:24:21.952Z,101613.36
2022-10-17T06:26:53.293Z,101623.84
2022-10-17T06:29:24.027Z,101626.48
2022-10-17T06:31:53.945Z,101617.77
2022-10-17T06:34:22.756Z,101618.67
2022-10-17T06:36:52.907Z,101621.28
2022-10-17T06:39:22.855Z,101621.31
2022-10-17T06:42:06.963Z,101626.55
2022-10-17T06:44:49.631Z,101634.37
2022-10-17T06:47:46.482Z,101630.88
2022-10-17T06:50:44.268Z,101635.20
2022-10-17T06:53:17.539Z,101639.53
2022-10-17T06:56:09.679Z,101635.11
2022-10-17T06:58:45.171Z,101637.66
2022-10-17T07:01:43.263Z,101638.50
2022-10-17T07:04:16.116Z,101634.91
2022-10-17T07:06:45.311Z,101628.77
2022-10-17T07:09:20.021Z,101636.38
2022-10-17T07:11:49.126Z,101638.45
2022-10-17T07:14:20.405Z,101642.97
2022-10-17T07:16:50.230Z,101643.56
2022-10-17T07:19:28.127Z,101642.57
2022-10-17T07:21:57.518Z,101649.81
2022-10-17T07:24:28.335Z,101645.95
2022-10-17T07:27:03.564Z,101640.16
2022-10-17T07:29:32.241Z,101635.06
2022-10-17T07:32:10.383Z,101620.12
2022-10-17T07:34:39.303Z,101633.36
2022-10-17T07:37:10.089Z,101621.32
2022-10-17T07:39:41.633Z,101626.40
2022-10-17T07:42:11.305Z,101638.91
2022-10-17T07:44:40.069Z,101641.25
2022-10-17T07:47:08.826Z,101642.38
2022-10-17T07:49:42.105Z,101648.69
2022-10-17T07:52:11.356Z,101653.58
2022-10-17T07:54:40.289Z,101655.06
2022-10-17T07:57:09.496Z,101659.86
2022-10-17T07:59:38.562Z,101652.87
2022-10-17T08:02:09.408Z,101667.80
2022-10-17T08:04:38.654Z,101670.11
2022-10-17T08:07:21.856Z,101671.20
2022-10-17T08:09:51.676Z,101664.37
2022-10-17T08:12:20.449Z,101668.84
2022-10-17T08:14:50.898Z,101668.94
2022-10-17T08:17:19.313Z,101664.51
2022-10-17T08:19:48.261Z,101670.55
2022-10-17T08:22:16.664Z,101677.70
2022-10-17T08:24:46.069Z,101668.96
2022-10-17T08:27:14.786Z,101677.85
2022-10-17T08:29:47.851Z,101675.26
2022-10-17T08:32:16.251Z,101677.02
2022-10-17T08:34:44.802Z,101677.80
2022-10-17T08:37:13.784Z,101675.98
2022-10-17T08:39:43.323Z,101673.34
2022-10-17T08:42:31.041Z,101667.08
2022-10-17T08:45:10.233Z,101666.95
2022-10-17T08:47:42.172Z,101670.22
2022-10-17T08:50:15.798Z,101663.78
2022-10-17T08:52:48.380Z,101664.98
2022-10-17T08:55:22.695Z,101661.88
2022-10-17T08:57:51.291Z,101661.59
2022-10-17T09:00:21.377Z,101647.61
2022-10-17T09:03:06.754Z,101654.20
2022-10-17T09:05:45.868Z,101646.42
2022-10-17T09:08:35.856Z,101643.30
2022-10-17T09:11:15.602Z,101638.58
2022-10-17T09:13:55.929Z,101640.03
2022-10-17T09:16:45.031Z,101641.45
2022-10-17T09:19:19.930Z,101647.75
2022-10-17T09:21:52.996Z,101650.74
2022-10-17T09:24:28.008Z,101638.56
2022-10-17T09:26:57.205Z,101637.77
2022-10-17T09:29:36.056Z,101641.05
2022-10-17T09:32:15.179Z,101634.75
2022-10-17T09:34:43.968Z,101630.47
2022-10-17T09:37:15.435Z,101636.31
2022-10-17T09:39:44.590Z,101632.56
2022-10-17T09:42:15.229Z,101630.78
2022-10-17T09:44:51.042Z,101632.28
2022-10-17T09:47:29.763Z,101631.55
2022-10-17T09:49:59.375Z,101627.42
2022-10-17T09:52:33.248Z,101619.09
2022-10-17T09:55:05.221Z,101624.03
2022-10-17T09:57:53.450Z,101615.88
2022-10-17T10:00:24.735Z,101616.26
2022-10-17T10:03:10.106Z,101619.91
2022-10-17T10:05:39.173Z,101610.61
2022-10-17T10:08:16.459Z,101612.50
2022-10-17T10:10:45.405Z,101610.80
2022-10-17T10:13:20.100Z,101615.85
2022-10-17T10:15:49.954Z,101609.92
2022-10-17T10:21:08.372Z,101617.73
2022-10-17T10:23:39.765Z,101616.20
2022-10-17T10:26:21.226Z,101610.33
2022-10-17T10:28:57.071Z,101613.41
2022-10-17T10:31:31.529Z,101621.58
2022-10-17T10:34:13.992Z,101619.59
2022-10-17T10:36:50.671Z,101621.13
2022-10-17T10:39:33.616Z,101611.91
2022-10-17T10:42:05.847Z,101612.73
2022-10-17T10:44:37.205Z,101605.44
2022-10-17T10:47:16.120Z,101608.83
2022-10-17T10:49:45.443Z,101609.09
2022-10-17T10:52:23.198Z,101610.92
2022-10-17T10:54:59.540Z,101602.28
2022-10-17T10:57:32.654Z,101613.64
2022-10-17T11:00:11.845Z,101615.55
2022-10-17T11:02:46.442Z,101612.79
2022-10-17T11:05:21.987Z,101614.11
2022-10-17T11:08:00.147Z,101616.38
2022-10-17T11:10:37.622Z,101611.57
2022-10-17T11:13:11.449Z,101611.57
2022-10-17T11:15:46.801Z,101605.16
2022-10-17T11:18:22.918Z,101601.70
2022-10-17T11:20:58.803Z,101599.84
2022-10-17T11:23:32.764Z,101601.70
2022-10-17T11:26:07.032Z,101600.91
2022-10-17T11:28:35.711Z,101602.95
2022-10-17T11:31:08.954Z,101604.83
2022-10-17T11:33:45.475Z,101610.89
2022-10-17T11:36:16.740Z,101604.85
2022-10-17T11:38:50.895Z,101605.05
2022-10-17T11:41:24.504Z,101603.17
2022-10-17T11:43:54.382Z,101602.38
2022-10-17T11:46:27.837Z,101608.15
2022-10-17T11:49:14.967Z,101600.22
2022-10-17T11:52:04.405Z,101602.87
2022-10-17T11:54:38.735Z,101608.28
2022-10-17T11:57:34.726Z,101613.47
2022-10-17T12:00:22.478Z,101613.25
2022-10-17T12:03:12.869Z,101613.30
2022-10-17T12:05:49.174Z,101617.91
2022-10-17T12:08:30.608Z,101614.41
2022-10-17T12:11:12.319Z,101611.44
2022-10-17T12:13:54.279Z,101614.81
2022-10-17T12:16:45.530Z,101613.03
2022-10-17T12:19:33.410Z,101614.76
2022-10-17T12:22:19.623Z,101616.22
2022-10-17T12:25:01.368Z,101609.95
2022-10-17T12:27:41.747Z,101613.41
2022-10-17T12:30:25.243Z,101597.77
2022-10-17T12:33:21.755Z,101597.05
2022-10-17T12:35:51.875Z,101605.48
2022-10-17T12:38:23.428Z,101606.78
2022-10-17T12:41:00.919Z,101599.28
2022-10-17T12:43:56.440Z,101603.60
2022-10-17T12:46:59.084Z,101597.03
2022-10-17T12:49:47.122Z,101587.82
2022-10-17T12:52:22.518Z,101584.36
2022-10-17T12:55:10.524Z,101581.88
2022-10-17T12:57:56.414Z,101579.72
2022-10-17T13:00:31.694Z,101583.72
2022-10-17T13:03:12.668Z,101576.12
2022-10-17T13:05:45.286Z,101579.30
2022-10-17T13:08:20.876Z,101581.23
2022-10-17T13:10:53.776Z,101581.44
2022-10-17T13:13:26.653Z,101574.47
2022-10-17T13:15:55.748Z,101579.17
2022-10-17T13:18:26.019Z,101575.91
2022-10-17T13:21:01.406Z,101576.11
2022-10-17T13:23:34.853Z,101574.73
2022-10-17T13:26:12.256Z,101572.31
2022-10-17T13:28:41.026Z,101565.34
2022-10-17T13:31:34.730Z,101565.42
2022-10-17T13:34:06.372Z,101566.42
2022-10-17T13:36:35.578Z,101565.73
2022-10-17T13:39:16.870Z,101565.84
2022-10-17T13:41:45.766Z,101563.38
2022-10-17T13:44:19.402Z,101559.14
2022-10-17T13:46:47.408Z,101554.06
2022-10-17T13:49:25.730Z,101555.13
2022-10-17T13:52:00.250Z,101553.41
2022-10-17T13:54:40.534Z,101555.25
2022-10-17T13:57:20.245Z,101552.59
2022-10-17T13:59:51.686Z,101549.13
2022-10-17T14:02:23.789Z,101549.20
2022-10-17T14:05:16.850Z,101549.31
2022-10-17T14:10:41.158Z,101545.30
2022-10-17T14:13:22.140Z,101538.33
2022-10-17T14:15:51.957Z,101547.25
2022-10-17T14:18:26.981Z,101539.44
2022-10-17T14:23:44.885Z,101534.36
2022-10-17T14:26:16.431Z,101539.84
2022-10-17T14:28:49.778Z,101539.95
2022-10-17T14:31:25.609Z,101539.25
2022-10-17T14:33:54.721Z,101534.13
2022-10-17T14:36:33.864Z,101534.23
2022-10-17T14:39:05.235Z,101529.95
2022-10-17T14:41:44.177Z,101530.12
2022-10-17T14:44:23.535Z,101529.39
2022-10-17T14:46:57.187Z,101531.33
2022-10-17T14:49:37.517Z,101535.04
2022-10-17T14:52:31.237Z,101530.83
2022-10-17T14:55:22.930Z,101535.42
2022-10-17T14:57:51.673Z,101533.05
2022-10-17T15:00:23.649Z,101539.43
2022-10-17T15:02:53.731Z,101537.90
2022-10-17T15:05:23.501Z,101543.40
2022-10-17T15:07:53.618Z,101533.81
2022-10-17T15:10:33.284Z,101535.78
2022-10-17T15:13:26.509Z,101535.98
2022-10-17T15:15:53.584Z,101533.52
2022-10-17T15:18:22.275Z,101533.69
2022-10-17T15:20:59.503Z,101535.67
2022-10-17T15:23:35.525Z,101535.02
2022-10-17T15:26:08.832Z,101538.80
2022-10-17T15:28:37.259Z,101537.31
2022-10-17T15:31:06.405Z,101534.98
2022-10-17T15:33:36.489Z,101535.37
2022-10-17T15:36:16.404Z,101541.05
2022-10-17T15:38:45.150Z,101536.97
2022-10-17T15:41:14.356Z,101531.08
2022-10-17T15:43:43.516Z,101528.69
2022-10-17T15:46:15.090Z,101534.34
2022-10-17T15:48:44.240Z,101534.69
2022-10-17T15:51:12.939Z,101529.78
2022-10-17T15:53:42.259Z,101536.23
2022-10-17T15:56:23.666Z,101534.77
2022-10-17T15:58:52.160Z,101541.30
2022-10-17T16:01:25.042Z,101530.16
2022-10-17T16:03:54.325Z,101529.58
2022-10-17T16:06:26.425Z,101521.84
2022-10-17T16:08:55.015Z,101527.33
2022-10-17T16:11:30.719Z,101524.02
2022-10-17T16:14:02.536Z,101517.25
2022-10-17T16:16:35.611Z,101524.56
2022-10-17T16:19:06.664Z,101526.50
2022-10-17T16:21:37.299Z,101526.73
2022-10-17T16:24:06.475Z,101528.75
2022-10-17T16:26:35.768Z,101521.02
2022-10-17T16:29:04.476Z,101521.18
2022-10-17T16:31:43.865Z,101523.09
2022-10-17T16:34:14.249Z,101514.50
2022-10-17T16:36:43.298Z,101508.50
2022-10-17T16:39:11.933Z,101506.01
2022-10-17T16:41:41.823Z,101517.56
2022-10-17T16:44:14.093Z,101517.77
2022-10-17T16:46:43.165Z,101513.55
2022-10-17T16:49:12.153Z,101506.73
2022-10-17T16:51:40.794Z,101506.92
2022-10-17T16:54:09.781Z,101510.59
2022-10-17T16:56:38.274Z,101505.42
2022-10-17T16:59:06.728Z,101513.46
2022-10-17T17:01:37.635Z,101517.16
2022-10-17T17:04:08.669Z,101516.44
2022-10-17T17:06:37.479Z,101505.93
2022-10-17T17:09:08.050Z,101510.47
2022-10-17T17:11:38.125Z,101511.45
2022-10-17T17:14:09.832Z,101506.30
2022-10-17T17:16:45.161Z,101511.69
2022-10-17T17:19:16.704Z,101509.22
2022-10-17T17:21:49.947Z,101517.23
2022-10-17T17:24:21.145Z,101517.38
2022-10-17T17:26:53.377Z,101521.05
2022-10-17T17:29:23.716Z,101513.27
2022-10-17T17:31:52.950Z,101518.64
2022-10-17T17:34:22.057Z,101512.56
2022-10-17T17:36:51.198Z,101508.26
2022-10-17T17:39:20.306Z,101515.36
2022-10-17T17:41:49.598Z,101512.83
2022-10-17T17:44:18.200Z,101512.04
2022-10-17T17:46:47.770Z,101512.95
2022-10-17T17:49:16.619Z,101521.79
2022-10-17T17:51:46.286Z,101515.70
2022-10-17T17:54:16.427Z,101520.98
2022-10-17T17:56:45.415Z,101515.80
2022-10-17T17:59:16.875Z,101514.05
2022-10-17T18:01:46.111Z,101513.20
2022-10-17T18:04:16.201Z,101513.20
2022-10-17T18:06:44.952Z,101504.44
2022-10-17T18:09:13.774Z,101521.08
2022-10-17T18:11:42.439Z,101515.83
2022-10-17T18:14:13.281Z,101517.54
2022-10-17T18:16:45.344Z,101510.55
2022-10-17T18:19:14.669Z,101514.85
2022-10-17T18:21:43.823Z,101506.97
2022-10-17T18:24:12.513Z,101508.72
2022-10-17T18:26:43.654Z,101511.31
2022-10-17T18:29:12.639Z,101512.16
2022-10-17T18:31:50.369Z,101505.17
2022-10-17T18:34:19.017Z,101505.17
2022-10-17T18:36:47.728Z,101513.08
2022-10-17T18:39:19.159Z,101511.34
2022-10-17T18:41:47.888Z,101503.48
2022-10-17T18:44:17.058Z,101504.37
2022-10-17T18:46:49.428Z,101494.75
2022-10-17T18:49:23.036Z,101500.04
2022-10-17T18:51:52.761Z,101493.05
2022-10-17T18:54:23.913Z,101499.24
2022-10-17T18:56:53.955Z,101498.42
2022-10-17T18:59:22.445Z,101502.81
2022-10-17T19:01:51.221Z,101504.61
2022-10-17T19:04:19.757Z,101502.02
2022-10-17T19:06:48.306Z,101498.56
2022-10-17T19:09:17.145Z,101496.88
2022-10-17T19:11:45.764Z,101492.48
2022-10-17T19:14:14.303Z,101484.63
2022-10-17T19:16:46.264Z,101485.52
2022-10-17T19:19:19.242Z,101500.41
2022-10-17T19:21:48.434Z,101499.53
2022-10-17T19:24:20.900Z,101489.08
2022-10-17T19:26:52.923Z,101492.56
2022-10-17T19:29:23.909Z,101488.20
2022-10-17T19:31:53.313Z,101489.94
2022-10-17T19:34:24.646Z,101481.20
2022-10-17T19:36:55.155Z,101480.30
2022-10-17T19:39:24.629Z,101480.27
2022-10-17T19:41:55.771Z,101475.87
2022-10-17T19:44:24.555Z,101473.21
2022-10-17T19:46:53.495Z,101480.17
2022-10-17T19:49:22.516Z,101480.18
2022-10-17T19:51:51.025Z,101477.52
2022-10-17T19:54:19.856Z,101480.15
2022-10-17T19:56:48.444Z,101476.67
2022-10-17T19:59:17.825Z,101478.44
2022-10-17T20:01:46.558Z,101475.81
2022-10-17T20:04:15.210Z,101470.59
2022-10-17T20:06:44.025Z,101469.73
2022-10-17T20:09:16.893Z,101468.91
2022-10-17T20:11:48.751Z,101465.42
2022-10-17T20:14:17.475Z,101464.59
2022-10-17T20:16:50.032Z,101468.13
2022-10-17T20:19:19.031Z,101464.68
2022-10-17T20:21:50.028Z,101458.59
2022-10-17T20:24:18.504Z,101458.62
2022-10-17T20:26:46.966Z,101462.12
2022-10-17T20:29:19.178Z,101461.33
2022-10-17T20:31:50.546Z,101453.45
2022-10-17T20:34:20.051Z,101447.37
2022-10-17T20:36:49.362Z,101447.41
2022-10-17T20:39:19.981Z,101450.05
2022-10-17T20:41:48.677Z,101445.71
2022-10-17T20:44:17.194Z,101444.00
2022-10-17T20:47:00.816Z,101439.63
2022-10-17T20:49:32.087Z,101443.19
2022-10-17T20:52:06.442Z,101437.94
2022-10-17T20:54:34.997Z,101432.74
2022-10-17T20:57:05.009Z,101433.63
2022-10-17T20:59:35.605Z,101422.30
2022-10-17T21:02:05.352Z,101431.95
2022-10-17T21:04:45.766Z,101421.48
2022-10-17T21:07:15.670Z,101437.25
2022-10-17T21:09:45.838Z,101428.55
2022-10-17T21:12:21.713Z,101418.96
2022-10-17T21:15:03.182Z,101424.23
2022-10-17T21:17:32.445Z,101422.47
2022-10-17T21:20:01.803Z,101431.27
2022-10-17T21:22:30.560Z,101425.16
2022-10-17T21:25:01.921Z,101423.47
2022-10-17T21:27:30.516Z,101427.86
2022-10-17T21:30:00.559Z,101423.52
2022-10-17T21:32:47.178Z,101420.06
2022-10-17T21:35:19.280Z,101418.34
2022-10-17T21:37:47.818Z,101419.23
2022-10-17T21:40:16.702Z,101413.15
2022-10-17T21:42:47.342Z,101414.93
2022-10-17T21:45:25.096Z,101422.80
2022-10-17T21:48:12.249Z,101407.13
2022-10-17T21:50:41.438Z,101413.23
2022-10-17T21:53:09.953Z,101403.68
2022-10-17T21:55:38.487Z,101394.95
2022-10-17T21:58:06.976Z,101395.86
2022-10-17T22:00:35.528Z,101398.52
2022-10-17T22:03:08.080Z,101399.37
2022-10-17T22:05:37.476Z,101389.83
2022-10-17T22:08:06.494Z,101397.70
2022-10-17T22:10:38.222Z,101396.84
2022-10-17T22:13:06.760Z,101396.00
2022-10-17T22:15:35.191Z,101396.89
2022-10-17T22:18:04.093Z,101398.67
2022-10-17T22:20:34.782Z,101398.70
2022-10-17T22:23:03.575Z,101400.45
2022-10-17T22:25:32.304Z,101397.84
2022-10-17T22:28:01.305Z,101400.46
2022-10-17T22:30:29.788Z,101403.13
2022-10-17T22:32:59.063Z,101402.28
2022-10-17T22:35:28.184Z,101403.16
2022-10-17T22:37:56.652Z,101400.56
2022-10-17T22:40:25.318Z,101395.35
2022-10-17T22:43:04.121Z,101397.97
2022-10-17T22:45:32.860Z,101401.47
2022-10-17T22:48:01.706Z,101396.25
2022-10-17T22:50:30.133Z,101393.66
2022-10-17T22:53:00.009Z,101397.13
2022-10-17T22:55:28.531Z,101396.27
2022-10-17T22:57:57.318Z,101396.27
2022-10-17T23:03:02.065Z,101397.19
2022-10-17T23:05:30.792Z,101394.55
2022-10-17T23:08:02.500Z,101391.05
2022-10-17T23:10:30.957Z,101387.56
2022-10-17T23:13:02.147Z,101391.93
2022-10-17T23:15:30.915Z,101390.15
2022-10-17T23:18:01.842Z,101391.04
2022-10-17T23:20:31.161Z,101388.44
2022-10-17T23:23:00.294Z,101391.94
2022-10-17T23:25:28.793Z,101392.80
2022-10-17T23:27:57.338Z,101391.95
2022-10-17T23:30:29.107Z,101387.57
2022-10-17T23:32:57.821Z,101394.55
2022-10-17T23:35:27.909Z,101389.28
2022-10-17T23:37:56.399Z,101387.55
2022-10-17T23:40:24.797Z,101391.02
2022-10-17T23:42:53.309Z,101389.29
2022-10-17T23:45:22.323Z,101386.64
2022-10-17T23:47:51.155Z,101379.70
2022-10-17T23:50:22.416Z,101393.63
2022-10-17T23:52:51.019Z,101387.55
2022-10-17T23:55:28.311Z,101385.80
2022-10-17T23:57:56.964Z,101384.93
